createdAt,value
2022-08-03T00:00:58.877Z,94.40
2022-08-03T00:06:05.136Z,94.20
2022-08-03T00:11:08.484Z,94.30
2022-08-03T00:16:11.857Z,94.00
2022-08-03T00:21:17.536Z,94.00
2022-08-03T00:26:20.803Z,94.60
2022-08-03T00:31:39.706Z,94.70
2022-08-03T00:36:50.281Z,94.90
2022-08-03T00:41:53.408Z,94.80
2022-08-03T00:46:56.659Z,94.90
2022-08-03T00:52:01.497Z,95.00
2022-08-03T00:57:12.916Z,95.10
2022-08-03T01:02:16.470Z,95.20
2022-08-03T01:07:29.410Z,95.20
2022-08-03T01:12:37.387Z,95.20
2022-08-03T01:17:45.043Z,95.60
2022-08-03T01:23:16.304Z,95.70
2022-08-03T01:28:30.246Z,96.40
2022-08-03T01:33:37.228Z,96.70
2022-08-03T01:38:44.008Z,97.20
2022-08-03T01:44:28.687Z,96.80
2022-08-03T01:49:15.968Z,96.60
2022-08-03T01:54:19.525Z,99.20
2022-08-03T01:59:22.786Z,99.50
2022-08-03T02:04:34.073Z,99.00
2022-08-03T02:09:38.354Z,99.60
2022-08-03T02:14:42.423Z,99.50
2022-08-03T02:19:46.902Z,99.90
2022-08-03T02:24:51.008Z,99.90
2022-08-03T02:29:56.077Z,99.90
2022-08-03T02:35:01.177Z,99.90
2022-08-03T02:40:05.887Z,99.90
2022-08-03T02:45:12.537Z,99.90
2022-08-03T02:50:20.314Z,99.90
2022-08-03T02:55:24.121Z,99.90
2022-08-03T03:00:31.936Z,99.90
2022-08-03T03:05:54.985Z,99.90
2022-08-03T03:11:01.091Z,99.90
2022-08-03T03:16:05.212Z,99.90
2022-08-03T03:21:10.484Z,99.90
2022-08-03T03:26:14.617Z,99.90
2022-08-03T03:31:17.987Z,99.90
2022-08-03T03:36:22.680Z,99.90
2022-08-03T03:41:26.113Z,99.90
2022-08-03T03:46:30.079Z,99.90
2022-08-03T03:51:35.285Z,99.90
2022-08-03T03:56:38.619Z,99.90
2022-08-03T04:01:42.373Z,99.90
2022-08-03T04:07:04.315Z,99.90
2022-08-03T04:12:07.617Z,99.90
2022-08-03T04:17:11.457Z,99.90
2022-08-03T04:22:18.598Z,99.90
2022-08-03T04:27:23.289Z,99.90
2022-08-03T04:32:28.706Z,99.90
2022-08-03T04:37:36.859Z,99.90
2022-08-03T04:42:40.271Z,99.90
2022-08-03T04:47:45.202Z,99.90
2022-08-03T04:52:50.126Z,99.90
2022-08-03T04:57:53.729Z,99.90
2022-08-03T05:02:56.902Z,99.90
2022-08-03T05:08:02.072Z,99.90
2022-08-03T05:13:06.604Z,99.90
2022-08-03T05:18:14.004Z,99.90
2022-08-03T05:23:18.682Z,99.90
2022-08-03T05:28:21.782Z,99.90
2022-08-03T05:33:25.178Z,99.90
2022-08-03T05:38:34.603Z,99.90
2022-08-03T05:43:38.784Z,99.90
2022-08-03T05:48:42.216Z,99.90
2022-08-03T05:53:46.817Z,99.90
2022-08-03T05:58:49.953Z,99.90
2022-08-03T06:03:53.680Z,99.90
2022-08-03T06:08:58.726Z,99.90
2022-08-03T06:14:01.958Z,99.90
2022-08-03T06:19:05.229Z,99.90
2022-08-03T06:24:10.217Z,99.90
2022-08-03T06:29:15.229Z,99.90
2022-08-03T06:34:34.182Z,99.40
2022-08-03T06:39:39.917Z,97.10
2022-08-03T06:44:43.109Z,96.00
2022-08-03T06:50:12.392Z,94.30
2022-08-03T06:55:11.534Z,95.50
2022-08-03T07:00:15.529Z,91.90
2022-08-03T07:05:21.640Z,90.20
2022-08-03T07:10:26.314Z,89.30
2022-08-03T07:15:54.655Z,90.30
2022-08-03T07:20:56.985Z,85.10
2022-08-03T07:26:03.300Z,84.40
2022-08-03T07:31:06.470Z,82.20
2022-08-03T07:36:09.656Z,78.10
2022-08-03T07:41:14.438Z,79.40
2022-08-03T07:46:17.731Z,77.20
2022-08-03T07:51:21.476Z,74.40
2022-08-03T07:56:25.955Z,75.50
2022-08-03T08:01:30.353Z,73.40
2022-08-03T08:06:34.465Z,72.20
2022-08-03T08:11:40.108Z,70.40
2022-08-03T08:16:43.727Z,69.10
2022-08-03T08:21:53.174Z,72.10
2022-08-03T08:27:08.751Z,70.00
2022-08-03T08:32:13.227Z,69.00
2022-08-03T08:37:16.949Z,66.60
2022-08-03T08:42:22.299Z,67.50
2022-08-03T08:47:28.574Z,66.00
2022-08-03T08:52:32.396Z,64.90
2022-08-03T08:57:43.114Z,64.20
2022-08-03T09:02:47.610Z,63.70
2022-08-03T09:08:16.119Z,61.70
2022-08-03T09:13:21.139Z,63.90
2022-08-03T09:18:33.469Z,62.50
2022-08-03T09:24:01.380Z,62.10
2022-08-03T09:29:14.007Z,59.80
2022-08-03T09:34:22.157Z,59.10
2022-08-03T09:39:41.099Z,58.10
2022-08-03T09:44:47.013Z,58.20
2022-08-03T09:49:58.740Z,60.60
2022-08-03T09:55:03.076Z,61.10
2022-08-03T10:00:13.423Z,60.40
2022-08-03T10:05:19.539Z,59.40
2022-08-03T10:10:30.065Z,59.60
2022-08-03T10:16:23.005Z,57.30
2022-08-03T10:21:03.235Z,56.70
2022-08-03T10:26:07.395Z,53.40
2022-08-03T10:31:12.422Z,54.80
2022-08-03T10:36:16.885Z,55.70
2022-08-03T10:41:21.041Z,54.10
2022-08-03T10:46:25.846Z,53.90
2022-08-03T10:51:33.242Z,54.10
2022-08-03T10:56:58.798Z,54.40
2022-08-03T11:02:18.574Z,53.30
2022-08-03T11:07:23.459Z,53.10
2022-08-03T11:12:30.609Z,52.00
2022-08-03T11:17:46.337Z,53.00
2022-08-03T11:23:01.125Z,52.90
2022-08-03T11:28:29.306Z,53.20
2022-08-03T11:33:43.985Z,51.60
2022-08-03T11:44:51.052Z,49.90
2022-08-03T11:49:59.364Z,51.80
2022-08-03T11:55:13.766Z,52.70
2022-08-03T12:00:27.903Z,51.80
2022-08-03T12:05:40.701Z,51.50
2022-08-03T12:10:49.453Z,52.90
2022-08-03T12:15:54.123Z,50.60
2022-08-03T12:21:06.531Z,51.20
2022-08-03T12:26:10.568Z,54.80
2022-08-03T12:31:14.265Z,51.10
2022-08-03T12:36:19.038Z,50.20
2022-08-03T12:41:29.970Z,50.70
2022-08-03T12:46:37.643Z,51.60
2022-08-03T12:51:58.045Z,51.70
2022-08-03T12:57:02.390Z,51.10
2022-08-03T13:02:09.303Z,50.60
2022-08-03T13:07:15.465Z,49.90
2022-08-03T13:12:18.870Z,49.80
2022-08-03T13:17:24.517Z,51.10
2022-08-03T13:22:33.176Z,51.30
2022-08-03T13:28:03.829Z,49.30
2022-08-03T13:33:00.787Z,48.50
2022-08-03T13:38:07.968Z,52.30
2022-08-03T13:43:11.184Z,48.70
2022-08-03T13:48:36.124Z,48.20
2022-08-03T13:53:41.952Z,48.20
2022-08-03T13:58:45.558Z,48.20
2022-08-03T14:03:52.577Z,49.60
2022-08-03T14:09:00.584Z,46.90
2022-08-03T14:14:04.361Z,47.70
2022-08-03T14:19:09.124Z,48.20
2022-08-03T14:24:14.182Z,48.20
2022-08-03T14:29:17.374Z,48.10
2022-08-03T14:34:22.439Z,47.00
2022-08-03T14:45:02.443Z,47.70
2022-08-03T14:50:34.540Z,46.70
2022-08-03T14:55:38.657Z,48.40
2022-08-03T15:00:45.434Z,46.50
2022-08-03T15:05:48.696Z,46.20
2022-08-03T15:10:53.699Z,46.00
2022-08-03T15:16:06.321Z,46.80
2022-08-03T15:21:16.672Z,46.00
2022-08-03T15:26:41.394Z,49.20
2022-08-03T15:31:45.629Z,47.40
2022-08-03T15:36:48.911Z,47.30
2022-08-03T15:41:54.741Z,47.20
2022-08-03T15:46:59.700Z,47.00
2022-08-03T15:52:03.021Z,47.30
2022-08-03T15:57:07.732Z,46.70
2022-08-03T16:02:12.042Z,45.80
2022-08-03T16:07:36.951Z,46.00
2022-08-03T16:12:41.795Z,46.00
2022-08-03T16:17:46.876Z,46.30
2022-08-03T16:22:50.474Z,46.10
2022-08-03T16:28:07.136Z,46.20
2022-08-03T16:33:18.341Z,46.20
2022-08-03T16:38:22.126Z,46.40
2022-08-03T16:43:26.767Z,46.20
2022-08-03T16:48:29.951Z,47.40
2022-08-03T16:54:05.199Z,44.70
2022-08-03T16:58:57.905Z,45.10
2022-08-03T17:04:04.733Z,45.90
2022-08-03T17:09:38.678Z,44.80
2022-08-03T17:14:47.393Z,45.60
2022-08-03T17:19:55.275Z,44.90
2022-08-03T17:24:59.139Z,45.10
2022-08-03T17:30:07.772Z,45.30
2022-08-03T17:35:11.490Z,45.80
2022-08-03T17:40:17.507Z,45.80
2022-08-03T17:45:22.891Z,46.10
2022-08-03T17:50:28.890Z,46.90
2022-08-03T17:55:55.831Z,46.30
2022-08-03T18:02:00.245Z,47.40
2022-08-03T18:06:37.171Z,48.10
2022-08-03T18:11:40.303Z,49.90
2022-08-03T18:16:50.922Z,49.90
2022-08-03T18:22:03.590Z,49.80
2022-08-03T18:27:08.028Z,50.70
2022-08-03T18:32:17.004Z,51.60
2022-08-03T18:37:24.985Z,52.90
2022-08-03T18:42:28.820Z,52.80
2022-08-03T18:47:56.994Z,62.90
2022-08-03T18:53:15.677Z,99.90
2022-08-03T18:58:23.808Z,99.90
2022-08-03T19:03:41.582Z,99.90
2022-08-03T19:08:48.758Z,99.90
2022-08-03T19:13:52.320Z,99.90
2022-08-03T19:18:57.058Z,99.90
2022-08-03T19:24:01.755Z,99.90
2022-08-03T19:29:07.712Z,99.90
2022-08-03T19:34:20.504Z,99.90
2022-08-03T19:39:27.679Z,99.90
2022-08-03T19:44:32.257Z,99.90
2022-08-03T19:50:00.004Z,99.90
2022-08-03T19:55:06.015Z,99.90
2022-08-03T20:00:12.436Z,99.90
2022-08-03T20:05:18.811Z,99.90
2022-08-03T20:10:24.815Z,99.90
2022-08-03T20:15:31.169Z,99.90
2022-08-03T20:20:38.199Z,99.90
2022-08-03T20:25:48.653Z,99.90
2022-08-03T20:31:00.313Z,99.90
2022-08-03T20:36:18.104Z,99.90
2022-08-03T20:41:22.038Z,99.90
2022-08-03T20:46:31.802Z,99.90
2022-08-03T20:51:49.744Z,99.90
2022-08-03T20:56:56.660Z,99.90
2022-08-03T21:02:02.460Z,99.90
2022-08-03T21:07:16.744Z,99.90
2022-08-03T21:12:29.405Z,99.90
2022-08-03T21:17:41.994Z,99.90
2022-08-03T21:23:39.827Z,99.90
2022-08-03T21:28:39.358Z,99.90
2022-08-03T21:33:44.409Z,99.90
2022-08-03T21:38:56.477Z,99.90
2022-08-03T21:44:00.856Z,99.90
2022-08-03T21:50:05.846Z,93.30
2022-08-03T21:54:34.808Z,90.90
2022-08-03T21:59:39.001Z,82.00
2022-08-03T22:04:55.137Z,80.70
2022-08-03T22:10:01.753Z,80.00
2022-08-03T22:15:06.709Z,80.70
2022-08-03T22:20:15.129Z,80.80
2022-08-03T22:25:19.837Z,81.00
2022-08-03T22:30:23.845Z,81.30
2022-08-03T22:35:27.947Z,81.20
2022-08-03T22:40:32.554Z,82.70
2022-08-03T22:45:45.832Z,87.20
2022-08-03T22:51:04.162Z,88.20
2022-08-03T22:56:08.974Z,88.30
2022-08-03T23:01:16.138Z,86.50
2022-08-03T23:06:21.700Z,85.30
2022-08-03T23:11:27.499Z,85.50
2022-08-03T23:16:31.179Z,86.00
2022-08-03T23:21:53.872Z,89.20
2022-08-03T23:27:03.680Z,90.50
2022-08-03T23:32:09.432Z,90.50
2022-08-03T23:37:14.033Z,90.60
2022-08-03T23:42:20.394Z,90.30
2022-08-03T23:47:23.908Z,86.90
2022-08-03T23:52:57.077Z,85.70
2022-08-03T23:58:12.373Z,84.80
